sensor_id;sensor_type;location;lat;lon;timestamp;P1;durP1;ratioP1;P2;durP2;ratioP2
15528;SDS011;7866;52.280;9.500;2023-06-10T00:03:02;4.05;;;3.53;;
15528;SDS011;7866;52.280;9.500;2023-06-10T00:08:05;4.85;;;3.50;;
15528;SDS011;7866;52.280;9.500;2023-06-10T00:13:09;4.03;;;3.72;;
15528;SDS011;7866;52.280;9.500;2023-06-10T00:18:11;4.43;;;3.53;;
15528;SDS011;7866;52.280;9.500;2023-06-10T00:23:12;3.53;;;3.22;;
15528;SDS011;7866;52.280;9.500;2023-06-10T00:28:16;3.65;;;3.30;;
15528;SDS011;7866;52.280;9.500;2023-06-10T00:33:17;4.63;;;3.50;;
15528;SDS011;7866;52.280;9.500;2023-06-10T00:38:19;4.72;;;3.55;;
15528;SDS011;7866;52.280;9.500;2023-06-10T00:43:22;4.07;;;3.67;;
15528;SDS011;7866;52.280;9.500;2023-06-10T00:48:23;3.58;;;3.30;;
15528;SDS011;7866;52.280;9.500;2023-06-10T00:53:26;3.88;;;3.47;;
15528;SDS011;7866;52.280;9.500;2023-06-10T00:58:30;4.10;;;3.65;;
15528;SDS011;7866;52.280;9.500;2023-06-10T01:03:32;3.83;;;3.10;;
15528;SDS011;7866;52.280;9.500;2023-06-10T01:08:38;3.60;;;3.30;;
15528;SDS011;7866;52.280;9.500;2023-06-10T01:13:48;4.70;;;3.60;;
15528;SDS011;7866;52.280;9.500;2023-06-10T01:18:52;4.22;;;3.55;;
15528;SDS011;7866;52.280;9.500;2023-06-10T01:23:56;3.65;;;3.05;;
15528;SDS011;7866;52.280;9.500;2023-06-10T01:28:58;4.00;;;3.38;;
15528;SDS011;7866;52.280;9.500;2023-06-10T01:34:07;5.05;;;3.17;;
15528;SDS011;7866;52.280;9.500;2023-06-10T01:39:13;3.67;;;3.38;;
15528;SDS011;7866;52.280;9.500;2023-06-10T01:44:17;5.03;;;3.63;;
15528;SDS011;7866;52.280;9.500;2023-06-10T01:49:19;5.03;;;3.35;;
15528;SDS011;7866;52.280;9.500;2023-06-10T01:54:23;3.70;;;3.30;;
15528;SDS011;7866;52.280;9.500;2023-06-10T01:59:25;4.20;;;3.17;;
15528;SDS011;7866;52.280;9.500;2023-06-10T02:04:26;3.55;;;2.85;;
15528;SDS011;7866;52.280;9.500;2023-06-10T02:09:29;3.63;;;3.13;;
15528;SDS011;7866;52.280;9.500;2023-06-10T02:14:31;3.75;;;3.25;;
15528;SDS011;7866;52.280;9.500;2023-06-10T02:19:36;4.75;;;3.33;;
15528;SDS011;7866;52.280;9.500;2023-06-10T02:24:43;5.90;;;3.30;;
15528;SDS011;7866;52.280;9.500;2023-06-10T02:29:45;4.28;;;2.92;;
15528;SDS011;7866;52.280;9.500;2023-06-10T02:34:47;4.70;;;3.20;;
15528;SDS011;7866;52.280;9.500;2023-06-10T02:39:50;3.97;;;3.58;;
15528;SDS011;7866;52.280;9.500;2023-06-10T02:44:52;3.72;;;3.30;;
15528;SDS011;7866;52.280;9.500;2023-06-10T02:49:53;4.72;;;3.45;;
15528;SDS011;7866;52.280;9.500;2023-06-10T02:54:56;4.85;;;3.60;;
15528;SDS011;7866;52.280;9.500;2023-06-10T02:59:58;4.10;;;3.40;;
15528;SDS011;7866;52.280;9.500;2023-06-10T03:04:59;3.83;;;3.10;;
15528;SDS011;7866;52.280;9.500;2023-06-10T03:10:04;5.13;;;3.40;;
15528;SDS011;7866;52.280;9.500;2023-06-10T03:15:07;4.47;;;3.20;;
15528;SDS011;7866;52.280;9.500;2023-06-10T03:20:10;4.63;;;3.50;;
15528;SDS011;7866;52.280;9.500;2023-06-10T03:25:13;5.47;;;3.50;;
15528;SDS011;7866;52.280;9.500;2023-06-10T03:30:16;4.50;;;3.33;;
15528;SDS011;7866;52.280;9.500;2023-06-10T03:35:17;3.85;;;3.35;;
15528;SDS011;7866;52.280;9.500;2023-06-10T03:40:20;4.40;;;3.30;;
15528;SDS011;7866;52.280;9.500;2023-06-10T03:45:22;8.85;;;3.20;;
15528;SDS011;7866;52.280;9.500;2023-06-10T03:50:24;6.70;;;3.88;;
15528;SDS011;7866;52.280;9.500;2023-06-10T03:55:27;6.13;;;3.40;;
15528;SDS011;7866;52.280;9.500;2023-06-10T04:00:29;5.82;;;3.80;;
15528;SDS011;7866;52.280;9.500;2023-06-10T04:05:30;6.75;;;3.55;;
15528;SDS011;7866;52.280;9.500;2023-06-10T04:10:33;4.75;;;3.03;;
15528;SDS011;7866;52.280;9.500;2023-06-10T04:15:35;7.13;;;3.90;;
15528;SDS011;7866;52.280;9.500;2023-06-10T04:20:37;4.90;;;3.47;;
15528;SDS011;7866;52.280;9.500;2023-06-10T04:25:40;6.10;;;4.10;;
15528;SDS011;7866;52.280;9.500;2023-06-10T04:30:42;4.82;;;3.47;;
15528;SDS011;7866;52.280;9.500;2023-06-10T04:35:44;6.07;;;4.30;;
15528;SDS011;7866;52.280;9.500;2023-06-10T04:40:48;6.35;;;3.72;;
15528;SDS011;7866;52.280;9.500;2023-06-10T04:45:50;5.32;;;4.00;;
15528;SDS011;7866;52.280;9.500;2023-06-10T04:50:52;5.95;;;4.20;;
15528;SDS011;7866;52.280;9.500;2023-06-10T04:55:55;9.07;;;4.53;;
15528;SDS011;7866;52.280;9.500;2023-06-10T05:00:57;7.78;;;4.20;;
15528;SDS011;7866;52.280;9.500;2023-06-10T05:05:59;6.25;;;4.03;;
15528;SDS011;7866;52.280;9.500;2023-06-10T05:11:02;7.78;;;4.40;;
15528;SDS011;7866;52.280;9.500;2023-06-10T05:16:04;7.15;;;4.65;;
15528;SDS011;7866;52.280;9.500;2023-06-10T05:21:05;5.25;;;4.63;;
15528;SDS011;7866;52.280;9.500;2023-06-10T05:26:08;9.68;;;5.13;;
15528;SDS011;7866;52.280;9.500;2023-06-10T05:31:10;6.68;;;4.88;;
15528;SDS011;7866;52.280;9.500;2023-06-10T05:36:12;4.80;;;4.40;;
15528;SDS011;7866;52.280;9.500;2023-06-10T05:41:15;8.27;;;5.07;;
15528;SDS011;7866;52.280;9.500;2023-06-10T05:46:17;5.93;;;4.45;;
15528;SDS011;7866;52.280;9.500;2023-06-10T05:51:18;6.93;;;5.07;;
15528;SDS011;7866;52.280;9.500;2023-06-10T05:56:21;7.28;;;5.15;;
15528;SDS011;7866;52.280;9.500;2023-06-10T06:01:23;8.02;;;5.03;;
15528;SDS011;7866;52.280;9.500;2023-06-10T06:06:25;8.00;;;4.85;;
15528;SDS011;7866;52.280;9.500;2023-06-10T06:11:27;6.38;;;4.85;;
15528;SDS011;7866;52.280;9.500;2023-06-10T06:16:29;6.95;;;4.60;;
15528;SDS011;7866;52.280;9.500;2023-06-10T06:21:31;8.38;;;5.28;;
15528;SDS011;7866;52.280;9.500;2023-06-10T06:26:34;5.38;;;4.35;;
15528;SDS011;7866;52.280;9.500;2023-06-10T06:31:35;6.90;;;5.07;;
15528;SDS011;7866;52.280;9.500;2023-06-10T06:36:37;7.03;;;4.78;;
15528;SDS011;7866;52.280;9.500;2023-06-10T06:41:40;6.03;;;4.95;;
15528;SDS011;7866;52.280;9.500;2023-06-10T06:46:41;9.32;;;4.90;;
15528;SDS011;7866;52.280;9.500;2023-06-10T06:51:43;6.55;;;4.50;;
15528;SDS011;7866;52.280;9.500;2023-06-10T06:56:46;10.73;;;4.82;;
15528;SDS011;7866;52.280;9.500;2023-06-10T07:01:48;6.68;;;4.65;;
15528;SDS011;7866;52.280;9.500;2023-06-10T07:06:49;7.90;;;6.03;;
15528;SDS011;7866;52.280;9.500;2023-06-10T07:11:52;7.80;;;5.97;;
15528;SDS011;7866;52.280;9.500;2023-06-10T07:16:54;6.72;;;5.07;;
15528;SDS011;7866;52.280;9.500;2023-06-10T07:21:56;7.53;;;4.82;;
15528;SDS011;7866;52.280;9.500;2023-06-10T07:26:58;7.18;;;5.07;;
15528;SDS011;7866;52.280;9.500;2023-06-10T07:32:00;7.40;;;5.70;;
15528;SDS011;7866;52.280;9.500;2023-06-10T07:37:02;8.27;;;5.60;;
15528;SDS011;7866;52.280;9.500;2023-06-10T07:42:05;10.57;;;6.25;;
15528;SDS011;7866;52.280;9.500;2023-06-10T07:47:08;8.00;;;6.10;;
15528;SDS011;7866;52.280;9.500;2023-06-10T07:52:09;9.98;;;5.07;;
15528;SDS011;7866;52.280;9.500;2023-06-10T07:57:12;7.28;;;5.63;;
15528;SDS011;7866;52.280;9.500;2023-06-10T08:02:14;7.68;;;5.22;;
15528;SDS011;7866;52.280;9.500;2023-06-10T08:07:16;8.27;;;5.05;;
15528;SDS011;7866;52.280;9.500;2023-06-10T08:12:19;9.35;;;5.85;;
15528;SDS011;7866;52.280;9.500;2023-06-10T08:17:21;6.53;;;4.82;;
15528;SDS011;7866;52.280;9.500;2023-06-10T08:22:23;9.13;;;5.20;;
15528;SDS011;7866;52.280;9.500;2023-06-10T08:27:26;9.88;;;5.88;;
15528;SDS011;7866;52.280;9.500;2023-06-10T08:32:29;10.68;;;5.90;;
15528;SDS011;7866;52.280;9.500;2023-06-10T08:37:31;7.88;;;5.57;;
15528;SDS011;7866;52.280;9.500;2023-06-10T08:42:35;8.77;;;6.57;;
15528;SDS011;7866;52.280;9.500;2023-06-10T08:47:42;8.10;;;5.78;;
15528;SDS011;7866;52.280;9.500;2023-06-10T08:52:46;10.45;;;5.47;;
15528;SDS011;7866;52.280;9.500;2023-06-10T09:01:52;6.93;;;5.10;;
15528;SDS011;7866;52.280;9.500;2023-06-10T09:06:55;10.02;;;5.70;;
15528;SDS011;7866;52.280;9.500;2023-06-10T09:11:57;5.80;;;5.20;;
15528;SDS011;7866;52.280;9.500;2023-06-10T09:17:01;9.45;;;5.60;;
15528;SDS011;7866;52.280;9.500;2023-06-10T09:22:02;7.72;;;5.65;;
15528;SDS011;7866;52.280;9.500;2023-06-10T09:27:05;7.50;;;5.45;;
15528;SDS011;7866;52.280;9.500;2023-06-10T09:32:09;5.70;;;5.18;;
15528;SDS011;7866;52.280;9.500;2023-06-10T09:37:11;8.90;;;5.05;;
15528;SDS011;7866;52.280;9.500;2023-06-10T09:42:17;6.07;;;4.78;;
15528;SDS011;7866;52.280;9.500;2023-06-10T09:47:23;6.53;;;4.53;;
15528;SDS011;7866;52.280;9.500;2023-06-10T12:35:51;11.45;;;4.90;;
15528;SDS011;7866;52.280;9.500;2023-06-10T12:40:53;5.05;;;4.47;;
15528;SDS011;7866;52.280;9.500;2023-06-10T12:45:56;5.72;;;4.57;;
15528;SDS011;7866;52.280;9.500;2023-06-10T12:51:11;5.78;;;4.95;;
15528;SDS011;7866;52.280;9.500;2023-06-10T12:56:13;5.18;;;4.53;;
15528;SDS011;7866;52.280;9.500;2023-06-10T13:01:14;6.15;;;4.75;;
15528;SDS011;7866;52.280;9.500;2023-06-10T13:06:17;7.60;;;4.65;;
15528;SDS011;7866;52.280;9.500;2023-06-10T13:11:20;5.18;;;4.68;;
15528;SDS011;7866;52.280;9.500;2023-06-10T13:16:23;6.30;;;4.53;;
15528;SDS011;7866;52.280;9.500;2023-06-10T13:21:27;5.80;;;4.53;;
15528;SDS011;7866;52.280;9.500;2023-06-10T13:26:28;4.78;;;4.38;;
15528;SDS011;7866;52.280;9.500;2023-06-10T13:31:30;4.97;;;4.30;;
15528;SDS011;7866;52.280;9.500;2023-06-10T13:36:34;5.72;;;4.50;;
15528;SDS011;7866;52.280;9.500;2023-06-10T13:41:35;4.72;;;4.30;;
15528;SDS011;7866;52.280;9.500;2023-06-10T13:46:37;4.50;;;4.10;;
15528;SDS011;7866;52.280;9.500;2023-06-10T13:51:40;4.75;;;4.32;;
15528;SDS011;7866;52.280;9.500;2023-06-10T13:56:41;5.18;;;4.22;;
15528;SDS011;7866;52.280;9.500;2023-06-10T14:01:43;4.28;;;3.88;;
15528;SDS011;7866;52.280;9.500;2023-06-10T14:06:46;4.35;;;3.95;;
15528;SDS011;7866;52.280;9.500;2023-06-10T14:11:48;5.97;;;4.05;;
15528;SDS011;7866;52.280;9.500;2023-06-10T14:16:49;4.50;;;4.10;;
15528;SDS011;7866;52.280;9.500;2023-06-10T14:21:52;4.95;;;4.30;;
15528;SDS011;7866;52.280;9.500;2023-06-10T14:26:55;4.55;;;4.15;;
15528;SDS011;7866;52.280;9.500;2023-06-10T14:31:58;4.53;;;4.13;;
15528;SDS011;7866;52.280;9.500;2023-06-10T14:37:01;4.60;;;4.03;;
15528;SDS011;7866;52.280;9.500;2023-06-10T14:42:04;4.88;;;4.18;;
15528;SDS011;7866;52.280;9.500;2023-06-10T14:47:06;6.25;;;4.40;;
15528;SDS011;7866;52.280;9.500;2023-06-10T14:52:09;4.38;;;3.97;;
15528;SDS011;7866;52.280;9.500;2023-06-10T14:57:11;4.57;;;4.22;;
15528;SDS011;7866;52.280;9.500;2023-06-10T15:02:12;4.05;;;3.75;;
15528;SDS011;7866;52.280;9.500;2023-06-10T15:07:16;3.67;;;3.38;;
15528;SDS011;7866;52.280;9.500;2023-06-10T15:12:18;4.22;;;3.92;;
15528;SDS011;7866;52.280;9.500;2023-06-10T15:17:19;5.25;;;3.80;;
15528;SDS011;7866;52.280;9.500;2023-06-10T15:22:22;5.43;;;3.70;;
15528;SDS011;7866;52.280;9.500;2023-06-10T15:27:24;5.05;;;3.97;;
15528;SDS011;7866;52.280;9.500;2023-06-10T15:32:25;4.63;;;4.13;;
15528;SDS011;7866;52.280;9.500;2023-06-10T15:37:28;4.38;;;3.97;;
15528;SDS011;7866;52.280;9.500;2023-06-10T15:42:30;5.68;;;4.53;;
15528;SDS011;7866;52.280;9.500;2023-06-10T15:47:31;4.38;;;3.97;;
15528;SDS011;7866;52.280;9.500;2023-06-10T15:52:34;4.20;;;3.75;;
15528;SDS011;7866;52.280;9.500;2023-06-10T15:57:36;4.47;;;4.00;;
15528;SDS011;7866;52.280;9.500;2023-06-10T16:02:38;4.65;;;4.25;;
15528;SDS011;7866;52.280;9.500;2023-06-10T16:07:41;5.43;;;4.07;;
15528;SDS011;7866;52.280;9.500;2023-06-10T16:12:42;4.47;;;4.10;;
15528;SDS011;7866;52.280;9.500;2023-06-10T16:17:44;5.43;;;4.30;;
15528;SDS011;7866;52.280;9.500;2023-06-10T16:22:48;4.45;;;4.05;;
15528;SDS011;7866;52.280;9.500;2023-06-10T16:27:50;7.00;;;4.28;;
15528;SDS011;7866;52.280;9.500;2023-06-10T16:32:51;7.45;;;4.18;;
15528;SDS011;7866;52.280;9.500;2023-06-10T16:37:54;4.82;;;4.43;;
15528;SDS011;7866;52.280;9.500;2023-06-10T16:42:56;4.88;;;4.43;;
15528;SDS011;7866;52.280;9.500;2023-06-10T16:47:58;4.80;;;4.40;;
15528;SDS011;7866;52.280;9.500;2023-06-10T16:53:01;7.30;;;4.88;;
15528;SDS011;7866;52.280;9.500;2023-06-10T16:58:02;4.75;;;4.28;;
15528;SDS011;7866;52.280;9.500;2023-06-10T17:03:04;5.43;;;4.78;;
15528;SDS011;7866;52.280;9.500;2023-06-10T17:08:09;5.13;;;4.63;;
15528;SDS011;7866;52.280;9.500;2023-06-10T17:13:11;4.68;;;4.20;;
15528;SDS011;7866;52.280;9.500;2023-06-10T17:18:12;5.20;;;4.70;;
15528;SDS011;7866;52.280;9.500;2023-06-10T17:23:15;4.80;;;4.30;;
15528;SDS011;7866;52.280;9.500;2023-06-10T17:28:17;12.63;;;4.55;;
15528;SDS011;7866;52.280;9.500;2023-06-10T17:33:19;12.40;;;4.25;;
15528;SDS011;7866;52.280;9.500;2023-06-10T17:38:22;8.52;;;4.30;;
15528;SDS011;7866;52.280;9.500;2023-06-10T17:43:23;7.93;;;4.55;;
15528;SDS011;7866;52.280;9.500;2023-06-10T17:48:25;7.93;;;4.30;;
15528;SDS011;7866;52.280;9.500;2023-06-10T17:53:28;5.82;;;4.55;;
15528;SDS011;7866;52.280;9.500;2023-06-10T17:58:30;4.43;;;4.07;;
15528;SDS011;7866;52.280;9.500;2023-06-10T18:03:31;5.40;;;4.07;;
15528;SDS011;7866;52.280;9.500;2023-06-10T18:08:37;5.45;;;4.00;;
15528;SDS011;7866;52.280;9.500;2023-06-10T18:13:39;6.07;;;3.63;;
15528;SDS011;7866;52.280;9.500;2023-06-10T18:18:40;5.53;;;4.28;;
15528;SDS011;7866;52.280;9.500;2023-06-10T18:23:44;5.13;;;3.80;;
15528;SDS011;7866;52.280;9.500;2023-06-10T18:28:46;4.60;;;4.07;;
15528;SDS011;7866;52.280;9.500;2023-06-10T18:33:48;4.50;;;3.50;;
15528;SDS011;7866;52.280;9.500;2023-06-10T18:38:51;3.85;;;3.45;;
15528;SDS011;7866;52.280;9.500;2023-06-10T18:43:52;4.05;;;3.42;;
15528;SDS011;7866;52.280;9.500;2023-06-10T18:48:55;3.97;;;3.60;;
15528;SDS011;7866;52.280;9.500;2023-06-10T18:53:58;7.32;;;3.97;;
15528;SDS011;7866;52.280;9.500;2023-06-10T18:59:02;5.85;;;3.22;;
15528;SDS011;7866;52.280;9.500;2023-06-10T19:04:03;3.88;;;3.58;;
15528;SDS011;7866;52.280;9.500;2023-06-10T19:09:06;3.88;;;3.42;;
15528;SDS011;7866;52.280;9.500;2023-06-10T19:14:08;4.22;;;3.83;;
15528;SDS011;7866;52.280;9.500;2023-06-10T19:19:11;3.65;;;3.35;;
15528;SDS011;7866;52.280;9.500;2023-06-10T19:24:14;3.90;;;3.60;;
15528;SDS011;7866;52.280;9.500;2023-06-10T19:29:15;3.85;;;3.55;;
15528;SDS011;7866;52.280;9.500;2023-06-10T19:34:17;4.85;;;3.50;;
15528;SDS011;7866;52.280;9.500;2023-06-10T19:39:20;4.00;;;3.60;;
15528;SDS011;7866;52.280;9.500;2023-06-10T19:44:22;3.88;;;3.58;;
15528;SDS011;7866;52.280;9.500;2023-06-10T19:49:23;3.72;;;3.42;;
15528;SDS011;7866;52.280;9.500;2023-06-10T19:54:26;4.00;;;3.63;;
15528;SDS011;7866;52.280;9.500;2023-06-10T19:59:28;3.90;;;3.60;;
15528;SDS011;7866;52.280;9.500;2023-06-10T20:04:31;5.38;;;3.90;;
15528;SDS011;7866;52.280;9.500;2023-06-10T20:09:34;5.43;;;3.58;;
15528;SDS011;7866;52.280;9.500;2023-06-10T20:14:36;3.85;;;3.55;;
15528;SDS011;7866;52.280;9.500;2023-06-10T20:19:38;4.43;;;4.03;;
15528;SDS011;7866;52.280;9.500;2023-06-10T20:24:41;4.38;;;4.07;;
15528;SDS011;7866;52.280;9.500;2023-06-10T20:29:42;4.50;;;4.10;;
15528;SDS011;7866;52.280;9.500;2023-06-10T20:34:44;4.25;;;3.85;;
15528;SDS011;7866;52.280;9.500;2023-06-10T20:39:47;4.40;;;4.00;;
15528;SDS011;7866;52.280;9.500;2023-06-10T20:44:49;4.07;;;3.70;;
15528;SDS011;7866;52.280;9.500;2023-06-10T20:49:50;4.20;;;3.80;;
15528;SDS011;7866;52.280;9.500;2023-06-10T20:54:53;4.00;;;3.70;;
15528;SDS011;7866;52.280;9.500;2023-06-10T20:59:55;4.10;;;3.80;;
15528;SDS011;7866;52.280;9.500;2023-06-10T21:04:57;4.72;;;4.00;;
15528;SDS011;7866;52.280;9.500;2023-06-10T21:10:01;4.35;;;3.95;;
15528;SDS011;7866;52.280;9.500;2023-06-10T21:15:02;4.15;;;3.80;;
15528;SDS011;7866;52.280;9.500;2023-06-10T21:20:05;4.53;;;4.13;;
15528;SDS011;7866;52.280;9.500;2023-06-10T21:25:09;5.40;;;3.72;;
15528;SDS011;7866;52.280;9.500;2023-06-10T21:30:11;4.55;;;4.18;;
15528;SDS011;7866;52.280;9.500;2023-06-10T21:35:13;4.45;;;4.05;;
15528;SDS011;7866;52.280;9.500;2023-06-10T21:40:17;4.97;;;4.43;;
15528;SDS011;7866;52.280;9.500;2023-06-10T21:45:19;4.38;;;3.97;;
15528;SDS011;7866;52.280;9.500;2023-06-10T21:50:21;5.53;;;4.05;;
15528;SDS011;7866;52.280;9.500;2023-06-10T21:55:24;4.32;;;3.92;;
15528;SDS011;7866;52.280;9.500;2023-06-10T22:00:25;4.43;;;4.03;;
15528;SDS011;7866;52.280;9.500;2023-06-10T22:05:27;4.50;;;3.97;;
15528;SDS011;7866;52.280;9.500;2023-06-10T22:10:30;4.18;;;3.80;;
15528;SDS011;7866;52.280;9.500;2023-06-10T22:15:32;4.63;;;3.92;;
15528;SDS011;7866;52.280;9.500;2023-06-10T22:20:33;4.45;;;4.05;;
15528;SDS011;7866;52.280;9.500;2023-06-10T22:25:36;4.10;;;3.70;;
15528;SDS011;7866;52.280;9.500;2023-06-10T22:30:38;4.90;;;4.50;;
15528;SDS011;7866;52.280;9.500;2023-06-10T22:35:40;5.25;;;4.53;;
15528;SDS011;7866;52.280;9.500;2023-06-10T22:40:43;4.72;;;4.32;;
15528;SDS011;7866;52.280;9.500;2023-06-10T22:45:45;4.53;;;4.20;;
15528;SDS011;7866;52.280;9.500;2023-06-10T22:50:46;4.63;;;4.28;;
15528;SDS011;7866;52.280;9.500;2023-06-10T22:55:49;4.90;;;4.50;;
15528;SDS011;7866;52.280;9.500;2023-06-10T23:00:51;5.15;;;4.65;;
15528;SDS011;7866;52.280;9.500;2023-06-10T23:05:53;5.70;;;4.80;;
15528;SDS011;7866;52.280;9.500;2023-06-10T23:10:56;5.50;;;5.00;;
15528;SDS011;7866;52.280;9.500;2023-06-10T23:15:57;5.10;;;4.60;;
15528;SDS011;7866;52.280;9.500;2023-06-10T23:20:59;5.00;;;4.55;;
15528;SDS011;7866;52.280;9.500;2023-06-10T23:26:02;4.70;;;4.30;;
15528;SDS011;7866;52.280;9.500;2023-06-10T23:31:03;4.70;;;4.25;;
15528;SDS011;7866;52.280;9.500;2023-06-10T23:36:05;4.70;;;4.28;;
15528;SDS011;7866;52.280;9.500;2023-06-10T23:41:08;4.80;;;4.38;;
15528;SDS011;7866;52.280;9.500;2023-06-10T23:46:10;4.90;;;4.40;;
15528;SDS011;7866;52.280;9.500;2023-06-10T23:51:11;4.72;;;4.32;;
15528;SDS011;7866;52.280;9.500;2023-06-10T23:56:14;4.63;;;4.22;;
